createdAt,value
2022-09-27T00:00:11.518Z,97283.03
2022-09-27T00:03:02.037Z,97293.38
2022-09-27T00:05:48.730Z,97299.16
2022-09-27T00:08:36.752Z,97294.03
2022-09-27T00:11:33.359Z,97294.81
2022-09-27T00:14:19.729Z,97293.00
2022-09-27T00:17:05.899Z,97273.47
2022-09-27T00:19:52.218Z,97290.50
2022-09-27T00:22:38.675Z,97290.88
2022-09-27T00:25:25.496Z,97289.63
2022-09-27T00:28:12.266Z,97283.94
2022-09-27T00:30:59.585Z,97278.97
2022-09-27T00:33:46.055Z,97279.63
2022-09-27T00:36:33.330Z,97277.22
2022-09-27T00:39:20.035Z,97280.72
2022-09-27T00:42:10.778Z,97273.72
2022-09-27T00:45:05.669Z,97274.63
2022-09-27T00:48:01.152Z,97271.03
2022-09-27T00:50:52.219Z,97258.13
2022-09-27T00:53:53.678Z,97264.28
2022-09-27T00:56:42.462Z,97269.09
2022-09-27T00:59:46.688Z,97274.50
2022-09-27T01:02:35.283Z,97269.44
2022-09-27T01:05:25.587Z,97264.16
2022-09-27T01:08:11.875Z,97262.41
2022-09-27T01:11:18.615Z,97268.56
2022-09-27T01:14:28.762Z,97262.41
2022-09-27T01:17:39.774Z,97261.63
2022-09-27T01:20:38.598Z,97261.53
2022-09-27T01:23:24.927Z,97258.44
2022-09-27T01:26:49.269Z,97260.97
2022-09-27T01:29:59.957Z,97261.81
2022-09-27T01:32:56.666Z,97259.78
2022-09-27T01:35:52.878Z,97265.06
2022-09-27T01:38:51.287Z,97265.88
2022-09-27T01:42:11.258Z,97241.25
2022-09-27T01:45:56.756Z,97260.53
2022-09-27T01:49:17.429Z,97267.22
2022-09-27T01:52:08.022Z,97275.97
2022-09-27T01:54:59.497Z,97269.19
2022-09-27T01:58:32.025Z,97263.03
2022-09-27T02:01:22.239Z,97253.19
2022-09-27T02:04:13.773Z,97287.38
2022-09-27T02:07:37.885Z,97296.09
2022-09-27T02:10:30.549Z,97286.75
2022-09-27T02:13:52.326Z,97292.75
2022-09-27T02:17:04.995Z,97293.16
2022-09-27T02:20:07.188Z,97297.63
2022-09-27T02:23:36.882Z,97293.59
2022-09-27T02:26:36.184Z,97301.53
2022-09-27T02:29:33.277Z,97293.09
2022-09-27T02:32:19.807Z,97305.25
2022-09-27T02:35:19.767Z,97303.66
2022-09-27T02:38:07.852Z,97299.56
2022-09-27T02:40:54.718Z,97297.03
2022-09-27T02:43:42.371Z,97305.69
2022-09-27T02:46:29.513Z,97310.09
2022-09-27T02:49:50.387Z,97310.88
2022-09-27T02:52:54.507Z,97312.66
2022-09-27T02:56:08.205Z,97316.31
2022-09-27T02:59:36.500Z,97301.91
2022-09-27T03:03:00.900Z,97325.78
2022-09-27T03:06:11.608Z,97319.09
2022-09-27T03:08:58.239Z,97324.06
2022-09-27T03:11:45.058Z,97316.25
2022-09-27T03:14:31.748Z,97321.34
2022-09-27T03:17:40.871Z,97324.81
2022-09-27T03:21:02.648Z,97326.63
2022-09-27T03:23:49.136Z,97331.69
2022-09-27T03:26:36.564Z,97324.97
2022-09-27T03:29:23.411Z,97319.88
2022-09-27T03:32:16.897Z,97336.78
2022-09-27T03:35:19.613Z,97340.25
2022-09-27T03:38:07.327Z,97331.69
2022-09-27T03:40:54.003Z,97337.47
2022-09-27T03:43:40.625Z,97342.53
2022-09-27T03:46:27.436Z,97348.63
2022-09-27T03:49:14.216Z,97340.88
2022-09-27T03:52:01.027Z,97339.28
2022-09-27T03:54:48.005Z,97350.19
2022-09-27T03:57:34.349Z,97354.59
2022-09-27T04:00:21.698Z,97341.94
2022-09-27T04:03:08.376Z,97357.38
2022-09-27T04:06:00.859Z,97357.38
2022-09-27T04:08:56.092Z,97353.94
2022-09-27T04:11:47.261Z,97347.03
2022-09-27T04:14:34.054Z,97356.38
2022-09-27T04:17:42.509Z,97358.22
2022-09-27T04:20:48.127Z,97361.72
2022-09-27T04:23:34.939Z,97365.06
2022-09-27T04:26:21.247Z,97363.31
2022-09-27T04:29:28.309Z,97342.00
2022-09-27T04:32:19.354Z,97345.44
2022-09-27T04:35:53.288Z,97359.06
2022-09-27T04:38:39.754Z,97367.50
2022-09-27T04:41:29.435Z,97369.25
2022-09-27T04:44:16.099Z,97375.41
2022-09-27T04:49:57.723Z,97388.44
2022-09-27T04:52:44.578Z,97370.75
2022-09-27T04:55:30.726Z,97391.03
2022-09-27T04:58:17.869Z,97391.91
2022-09-27T05:01:04.961Z,97395.34
2022-09-27T05:04:14.358Z,97400.47
2022-09-27T05:07:05.048Z,97404.66
2022-09-27T05:09:59.287Z,97413.44
2022-09-27T05:12:46.133Z,97416.81
2022-09-27T05:15:36.312Z,97416.03
2022-09-27T05:18:42.252Z,97430.75
2022-09-27T05:21:47.247Z,97431.72
2022-09-27T05:24:33.834Z,97442.03
2022-09-27T05:27:20.942Z,97425.06
2022-09-27T05:30:08.253Z,97455.06
2022-09-27T05:33:15.108Z,97443.28
2022-09-27T05:36:02.264Z,97433.09
2022-09-27T05:38:51.664Z,97459.44
2022-09-27T05:41:41.211Z,97467.19
2022-09-27T05:44:27.937Z,97463.81
2022-09-27T05:47:18.480Z,97467.88
2022-09-27T05:50:05.662Z,97473.81
2022-09-27T05:52:52.595Z,97466.84
2022-09-27T05:55:39.735Z,97470.94
2022-09-27T05:58:28.395Z,97470.88
2022-09-27T06:01:28.383Z,97467.34
2022-09-27T06:04:40.968Z,97481.84
2022-09-27T06:07:50.386Z,97415.53
2022-09-27T06:10:43.018Z,97490.06
2022-09-27T06:13:30.481Z,97465.38
2022-09-27T06:16:17.080Z,97490.06
2022-09-27T06:19:05.239Z,97495.31
2022-09-27T06:21:51.998Z,97495.41
2022-09-27T06:24:38.593Z,97506.53
2022-09-27T06:27:32.059Z,97511.78
2022-09-27T06:30:27.211Z,97504.72
2022-09-27T06:33:17.067Z,97523.56
2022-09-27T06:36:09.933Z,97520.31
2022-09-27T06:39:01.691Z,97513.34
2022-09-27T06:42:11.280Z,97522.13
2022-09-27T06:45:16.394Z,97534.41
2022-09-27T06:48:22.419Z,97539.53
2022-09-27T06:51:24.616Z,97533.59
2022-09-27T06:54:11.329Z,97545.75
2022-09-27T06:57:01.720Z,97539.88
2022-09-27T07:00:07.782Z,97536.63
2022-09-27T07:03:37.648Z,97550.13
2022-09-27T07:06:38.439Z,97558.75
2022-09-27T07:09:38.887Z,97562.16
2022-09-27T07:12:25.209Z,97564.03
2022-09-27T07:15:13.294Z,97569.94
2022-09-27T07:18:00.234Z,97567.34
2022-09-27T07:20:48.801Z,97567.19
2022-09-27T07:23:37.030Z,97578.44
2022-09-27T07:26:25.059Z,97565.63
2022-09-27T07:29:11.415Z,97569.16
2022-09-27T07:31:58.152Z,97570.94
2022-09-27T07:34:45.099Z,97582.84
2022-09-27T07:37:37.372Z,97587.81
2022-09-27T07:40:24.607Z,97592.16
2022-09-27T07:43:12.249Z,97576.88
2022-09-27T07:45:59.808Z,97582.63
2022-09-27T07:48:56.779Z,97600.31
2022-09-27T07:52:03.808Z,97594.84
2022-09-27T07:55:17.502Z,97607.59
2022-09-27T07:58:17.845Z,97604.75
2022-09-27T08:01:05.267Z,97591.94
2022-09-27T08:03:52.122Z,97617.34
2022-09-27T08:06:39.302Z,97622.44
2022-09-27T08:09:26.457Z,97615.63
2022-09-27T08:12:13.265Z,97629.22
2022-09-27T08:15:01.489Z,97607.69
2022-09-27T08:17:47.972Z,97632.31
2022-09-27T08:20:45.999Z,97647.66
2022-09-27T08:23:59.867Z,97657.38
2022-09-27T08:27:12.162Z,97655.91
2022-09-27T08:30:32.448Z,97654.50
2022-09-27T08:33:20.649Z,97657.75
2022-09-27T08:36:16.354Z,97650.94
2022-09-27T08:39:04.508Z,97666.63
2022-09-27T08:42:36.766Z,97664.88
2022-09-27T08:45:26.512Z,97658.09
2022-09-27T08:48:16.474Z,97672.78
2022-09-27T08:51:10.823Z,97661.50
2022-09-27T08:54:08.623Z,97672.28
2022-09-27T08:57:05.125Z,97666.41
2022-09-27T09:00:02.698Z,97669.13
2022-09-27T09:02:49.768Z,97674.03
2022-09-27T09:05:37.590Z,97659.34
2022-09-27T09:08:50.743Z,97675.78
2022-09-27T09:12:25.848Z,97671.50
2022-09-27T09:15:54.135Z,97649.25
2022-09-27T09:19:11.525Z,97664.72
2022-09-27T09:22:30.128Z,97668.31
2022-09-27T09:25:55.951Z,97680.28
2022-09-27T09:29:27.228Z,97679.72
2022-09-27T09:32:32.444Z,97678.78
2022-09-27T09:35:27.027Z,97669.97
2022-09-27T09:38:25.868Z,97669.84
2022-09-27T09:41:27.779Z,97657.38
2022-09-27T09:44:23.906Z,97652.34
2022-09-27T09:47:22.682Z,97639.19
2022-09-27T09:50:27.364Z,97654.69
2022-09-27T09:53:32.817Z,97649.38
2022-09-27T09:56:29.729Z,97638.66
2022-09-27T09:59:38.467Z,97625.84
2022-09-27T10:02:39.820Z,97634.69
2022-09-27T10:05:34.105Z,97611.44
2022-09-27T10:08:24.487Z,97628.63
2022-09-27T10:11:42.336Z,97628.97
2022-09-27T10:14:33.593Z,97625.41
2022-09-27T10:17:30.195Z,97625.97
2022-09-27T10:20:44.070Z,97640.19
2022-09-27T10:23:32.162Z,97644.84
2022-09-27T10:26:50.932Z,97634.09
2022-09-27T10:29:39.179Z,97631.41
2022-09-27T10:32:37.381Z,97641.59
2022-09-27T10:35:46.962Z,97626.88
2022-09-27T10:38:39.950Z,97613.16
2022-09-27T10:41:47.696Z,97616.53
2022-09-27T10:44:43.369Z,97628.22
2022-09-27T10:47:57.247Z,97615.81
2022-09-27T10:51:04.228Z,97621.13
2022-09-27T10:54:01.666Z,97631.47
2022-09-27T10:57:00.242Z,97627.63
2022-09-27T10:59:53.531Z,97625.97
2022-09-27T11:02:40.243Z,97625.81
2022-09-27T11:05:34.066Z,97634.28
2022-09-27T11:08:23.921Z,97630.22
2022-09-27T11:11:21.237Z,97631.56
2022-09-27T11:14:27.078Z,97628.41
2022-09-27T11:17:27.640Z,97584.66
2022-09-27T11:20:52.325Z,97642.94
2022-09-27T11:24:00.253Z,97657.63
2022-09-27T11:27:18.092Z,97653.13
2022-09-27T11:30:07.556Z,97648.44
2022-09-27T11:33:30.958Z,97654.00
2022-09-27T11:36:42.082Z,97651.94
2022-09-27T11:39:43.884Z,97649.84
2022-09-27T11:42:52.550Z,97670.88
2022-09-27T11:46:29.106Z,97669.53
2022-09-27T11:49:21.759Z,97675.34
2022-09-27T11:52:49.730Z,97660.94
2022-09-27T11:55:57.780Z,97647.44
2022-09-27T11:59:03.054Z,97656.75
2022-09-27T12:02:37.768Z,97649.59
2022-09-27T12:06:07.275Z,97660.06
2022-09-27T12:09:06.541Z,97655.19
2022-09-27T12:12:04.564Z,97653.09
2022-09-27T12:15:14.281Z,97647.63
2022-09-27T12:18:21.014Z,97651.84
2022-09-27T12:21:10.246Z,97625.56
2022-09-27T12:23:58.050Z,97638.31
2022-09-27T12:27:02.309Z,97636.66
2022-09-27T12:29:50.060Z,97627.44
2022-09-27T12:32:47.865Z,97606.31
2022-09-27T12:35:51.512Z,97598.47
2022-09-27T12:38:48.426Z,97623.13
2022-09-27T12:41:40.369Z,97618.84
2022-09-27T12:44:40.967Z,97618.91
2022-09-27T12:47:40.486Z,97613.75
2022-09-27T12:50:43.648Z,97611.38
2022-09-27T12:53:56.445Z,97620.97
2022-09-27T12:56:51.814Z,97621.22
2022-09-27T13:00:18.347Z,97620.56
2022-09-27T13:03:26.239Z,97617.13
2022-09-27T13:06:56.809Z,97616.66
2022-09-27T13:10:26.287Z,97600.09
2022-09-27T13:13:21.220Z,97609.03
2022-09-27T13:16:08.897Z,97600.09
2022-09-27T13:19:04.178Z,97599.94
2022-09-27T13:21:51.282Z,97599.31
2022-09-27T13:24:47.132Z,97600.22
2022-09-27T13:27:46.017Z,97604.03
2022-09-27T13:30:40.200Z,97544.09
2022-09-27T13:33:34.721Z,97597.34
2022-09-27T13:36:33.671Z,97603.41
2022-09-27T13:39:25.422Z,97598.34
2022-09-27T13:42:46.549Z,97605.56
2022-09-27T13:45:41.736Z,97597.34
2022-09-27T13:48:37.814Z,97596.66
2022-09-27T13:51:40.845Z,97590.75
2022-09-27T13:54:51.445Z,97594.38
2022-09-27T13:57:53.853Z,97567.69
2022-09-27T14:00:58.209Z,97576.72
2022-09-27T14:04:19.804Z,97581.91
2022-09-27T14:07:12.463Z,97594.00
2022-09-27T14:10:01.050Z,97587.81
2022-09-27T14:12:53.230Z,97595.69
2022-09-27T14:15:40.248Z,97556.88
2022-09-27T14:18:29.868Z,97594.56
2022-09-27T14:21:27.120Z,97579.78
2022-09-27T14:24:44.242Z,97577.84
2022-09-27T14:27:42.723Z,97582.19
2022-09-27T14:30:42.334Z,97574.94
2022-09-27T14:33:45.315Z,97583.22
2022-09-27T14:37:04.123Z,97586.59
2022-09-27T14:40:19.114Z,97575.28
2022-09-27T14:43:15.629Z,97578.69
2022-09-27T14:46:08.769Z,97579.50
2022-09-27T14:48:56.212Z,97589.91
2022-09-27T14:51:43.435Z,97582.97
2022-09-27T14:54:33.050Z,97577.06
2022-09-27T14:57:19.592Z,97573.41
2022-09-27T15:00:15.339Z,97577.25
2022-09-27T15:03:06.075Z,97597.41
2022-09-27T15:05:54.296Z,97590.13
2022-09-27T15:08:41.538Z,97590.22
2022-09-27T15:11:29.890Z,97585.16
2022-09-27T15:14:19.886Z,97603.13
2022-09-27T15:17:07.005Z,97597.41
2022-09-27T15:19:58.947Z,97599.28
2022-09-27T15:22:45.642Z,97580.75
2022-09-27T15:25:36.608Z,97592.91
2022-09-27T15:28:27.946Z,97580.94
2022-09-27T15:31:15.267Z,97577.38
2022-09-27T15:34:02.533Z,97585.78
2022-09-27T15:36:51.175Z,97587.41
2022-09-27T15:39:40.044Z,97569.75
2022-09-27T15:42:26.752Z,97579.69
2022-09-27T15:45:35.764Z,97508.31
2022-09-27T15:48:22.212Z,97574.50
2022-09-27T15:51:50.770Z,97570.47
2022-09-27T15:54:37.303Z,97573.41
2022-09-27T15:57:29.769Z,97514.50
2022-09-27T16:00:18.439Z,97580.13
2022-09-27T16:03:04.732Z,97574.31
2022-09-27T16:05:51.351Z,97572.88
2022-09-27T16:08:37.768Z,97592.81
2022-09-27T16:11:25.385Z,97576.13
2022-09-27T16:14:16.519Z,97590.06
2022-09-27T16:17:03.135Z,97598.72
2022-09-27T16:19:50.509Z,97599.03
2022-09-27T16:22:36.928Z,97584.75
2022-09-27T16:25:23.662Z,97576.66
2022-09-27T16:28:10.688Z,97583.69
2022-09-27T16:31:04.953Z,97604.16
2022-09-27T16:33:51.508Z,97589.59
2022-09-27T16:36:41.067Z,97596.56
2022-09-27T16:39:27.579Z,97606.94
2022-09-27T16:42:14.553Z,97598.59
2022-09-27T16:45:04.821Z,97609.03
2022-09-27T16:47:53.790Z,97599.09
2022-09-27T16:50:59.106Z,97614.53
2022-09-27T16:53:45.769Z,97609.50
2022-09-27T16:56:33.894Z,97619.81
2022-09-27T16:59:21.036Z,97611.44
2022-09-27T17:02:09.673Z,97603.06
2022-09-27T17:04:56.023Z,97625.34
2022-09-27T17:07:42.484Z,97626.34
2022-09-27T17:10:31.628Z,97605.06
2022-09-27T17:13:18.210Z,97627.19
2022-09-27T17:16:05.394Z,97632.34
2022-09-27T17:18:52.128Z,97613.69
2022-09-27T17:21:38.666Z,97630.75
2022-09-27T17:24:25.481Z,97627.44
2022-09-27T17:27:12.074Z,97623.00
2022-09-27T17:29:58.351Z,97626.31
2022-09-27T17:32:44.623Z,97627.22
2022-09-27T17:35:31.439Z,97571.09
2022-09-27T17:38:18.017Z,97630.66
2022-09-27T17:41:06.997Z,97570.53
2022-09-27T17:43:56.484Z,97631.75
2022-09-27T17:46:43.065Z,97640.41
2022-09-27T17:49:48.415Z,97583.50
2022-09-27T17:52:35.053Z,97633.84
2022-09-27T17:55:22.269Z,97636.53
2022-09-27T17:58:09.528Z,97637.59
2022-09-27T18:01:00.329Z,97642.13
2022-09-27T18:03:48.152Z,97642.28
2022-09-27T18:06:34.531Z,97632.13
2022-09-27T18:09:21.096Z,97642.41
2022-09-27T18:12:07.724Z,97652.00
2022-09-27T18:14:57.115Z,97646.84
2022-09-27T18:17:43.983Z,97658.84
2022-09-27T18:20:34.036Z,97644.41
2022-09-27T18:23:20.283Z,97661.50
2022-09-27T18:26:10.033Z,97659.88
2022-09-27T18:29:01.997Z,97647.13
2022-09-27T18:31:49.383Z,97661.75
2022-09-27T18:34:35.958Z,97537.50
2022-09-27T18:37:22.251Z,97654.13
2022-09-27T18:40:08.899Z,97646.69
2022-09-27T18:42:55.423Z,97650.09
2022-09-27T18:45:41.753Z,97591.38
2022-09-27T18:48:30.148Z,97653.59
2022-09-27T18:51:19.658Z,97658.00
2022-09-27T18:54:09.465Z,97654.72
2022-09-27T18:56:56.376Z,97633.53
2022-09-27T18:59:42.843Z,97661.72
2022-09-27T19:02:29.420Z,97686.63
2022-09-27T19:05:16.087Z,97682.38
2022-09-27T19:08:02.435Z,97665.47
2022-09-27T19:10:48.747Z,97680.13
2022-09-27T19:13:43.726Z,97686.16
2022-09-27T19:16:35.107Z,97673.34
2022-09-27T19:19:22.199Z,97686.16
2022-09-27T19:22:09.060Z,97688.78
2022-09-27T19:24:55.408Z,97689.53
2022-09-27T19:27:43.280Z,97676.69
2022-09-27T19:30:30.010Z,97681.97
2022-09-27T19:33:16.348Z,97689.78
2022-09-27T19:36:05.190Z,97674.53
2022-09-27T19:38:51.991Z,97685.66
2022-09-27T19:41:40.186Z,97638.81
2022-09-27T19:44:26.826Z,97672.06
2022-09-27T19:47:13.471Z,97691.69
2022-09-27T19:49:59.794Z,97680.66
2022-09-27T19:52:46.854Z,97663.50
2022-09-27T19:55:33.941Z,97683.97
2022-09-27T19:58:20.243Z,97672.84
2022-09-27T20:01:11.583Z,97665.97
2022-09-27T20:03:59.735Z,97665.06
2022-09-27T20:06:47.011Z,97653.09
2022-09-27T20:09:33.539Z,97648.78
2022-09-27T20:12:20.047Z,97650.44
2022-09-27T20:15:07.031Z,97642.69
2022-09-27T20:17:53.780Z,97659.78
2022-09-27T20:20:40.292Z,97649.53
2022-09-27T20:23:28.051Z,97659.81
2022-09-27T20:26:16.101Z,97644.56
2022-09-27T20:29:04.249Z,97648.91
2022-09-27T20:32:15.941Z,97648.94
2022-09-27T20:34:57.786Z,97653.19
2022-09-27T20:37:44.306Z,97645.53
2022-09-27T20:40:30.809Z,97647.13
2022-09-27T20:43:17.659Z,97627.41
2022-09-27T20:46:11.836Z,97640.09
2022-09-27T20:49:00.969Z,97628.97
2022-09-27T20:51:51.337Z,97627.25
2022-09-27T20:54:37.886Z,97634.06
2022-09-27T20:57:46.445Z,97626.28
2022-09-27T21:00:32.034Z,97604.88
2022-09-27T21:03:21.735Z,97607.34
2022-09-27T21:06:08.787Z,97627.00
2022-09-27T21:08:55.875Z,97617.47
2022-09-27T21:11:42.784Z,97603.03
2022-09-27T21:14:29.300Z,97626.13
2022-09-27T21:17:21.161Z,97620.16
2022-09-27T21:20:08.207Z,97615.00
2022-09-27T21:22:54.693Z,97609.88
2022-09-27T21:25:41.612Z,97615.06
2022-09-27T21:28:35.507Z,97593.72
2022-09-27T21:31:25.864Z,97613.28
2022-09-27T21:34:12.454Z,97600.38
2022-09-27T21:36:58.976Z,97603.69
2022-09-27T21:39:45.560Z,97608.00
2022-09-27T21:42:32.127Z,97568.75
2022-09-27T21:45:18.779Z,97565.31
2022-09-27T21:48:05.098Z,97599.34
2022-09-27T21:50:51.262Z,97537.13
2022-09-27T21:53:39.960Z,97591.63
2022-09-27T21:56:28.558Z,97592.41
2022-09-27T21:59:15.655Z,97592.34
2022-09-27T22:02:01.963Z,97587.19
2022-09-27T22:04:49.228Z,97573.34
2022-09-27T22:07:35.761Z,97547.88
2022-09-27T22:10:22.225Z,97564.78
2022-09-27T22:13:08.702Z,97535.69
2022-09-27T22:15:55.456Z,97544.06
2022-09-27T22:18:47.417Z,97548.97
2022-09-27T22:21:36.158Z,97502.09
2022-09-27T22:24:22.858Z,97519.06
2022-09-27T22:27:09.083Z,97535.22
2022-09-27T22:29:55.309Z,97511.31
2022-09-27T22:32:45.697Z,97504.44
2022-09-27T22:35:32.629Z,97499.41
2022-09-27T22:38:18.844Z,97512.25
2022-09-27T22:41:04.939Z,97499.47
2022-09-27T22:43:53.508Z,97474.66
2022-09-27T22:46:40.302Z,97461.00
2022-09-27T22:49:26.590Z,97466.88
2022-09-27T22:52:12.715Z,97466.75
2022-09-27T22:54:59.222Z,97453.88
2022-09-27T22:57:45.824Z,97445.41
2022-09-27T23:00:33.377Z,97452.19
2022-09-27T23:03:20.645Z,97440.16
2022-09-27T23:06:07.392Z,97455.50
2022-09-27T23:08:54.981Z,97461.91
2022-09-27T23:11:41.138Z,97429.53
2022-09-27T23:14:27.686Z,97417.03
2022-09-27T23:17:15.770Z,97445.03
2022-09-27T23:20:02.568Z,97419.53
2022-09-27T23:22:49.667Z,97433.84
2022-09-27T23:25:36.163Z,97425.19
2022-09-27T23:28:22.424Z,97397.94
2022-09-27T23:31:14.600Z,97387.72
2022-09-27T23:34:04.294Z,97391.84
2022-09-27T23:36:51.206Z,97406.28
2022-09-27T23:39:37.388Z,97393.47
2022-09-27T23:42:23.953Z,97360.28
2022-09-27T23:45:10.983Z,97387.34
2022-09-27T23:47:57.509Z,97370.16
2022-09-27T23:50:48.163Z,97366.53
2022-09-27T23:53:34.670Z,97368.13
2022-09-27T23:56:21.008Z,97356.00
2022-09-27T23:59:07.558Z,97327.91
